Pagrindinis puslapis
METAR-TAF:

METAR-TAF

Oro uostai :

Kuresarė, Estija

platuma: 58-13-48N, ilguma: 022-30-34E, Aukštis: 4 m

Dabartinis oras

Ataskaita buvo paskelbta 35 minutes, ne 10:50 UTC
Vėjas 4 kt iš Šiaurės/Šiaurės Rytų
Temperatūra 0°C
Drėgmė 100%
Slėgis 1002 hPa
Matomumas: 4000 m
Išsisklaidę debesys ne aukštis 400 ft
Apsiniaukę ne aukštis 700 ft
rūkana

METAR: EEKE 071050Z 03004KT 4000 BR SCT004 OVC007 00/00 Q1002

Laikas: 13:25 (11:25 UTC)

Prognozė

Ataskaita buvo paskelbta 7 valandos ir 25 minutes, ne 04:00 UTC
Prognozė galioja nuo 07 metu 05 UTC su 07 metu 11 UTC
Vėjas 2 kt nuo kintamojo kryptimis
Matomumas: 2000 m
Su prošvaistėmis ne aukštis 400 ft
Apsiniaukę ne aukštis 1000 ft
sniegas, lietus
Laikinai
nuo 07 metu 05 UTC su 07 metu 09 UTC
Matomumas: 0800 m
ne aukštis 200 ft
sniegas
Laikinai
nuo 07 metu 05 UTC su 07 metu 11 UTC
ledijantis dulksna

TAF: EEKE 070400Z 0705/0711 VRB02KT 2000 SNRA BKN004 OVC010 TEMPO 0705/0709 0800 +SN VV002 TEMPO 0705/0711 FZDZ

Orai ataskaitas ir orų prognozės (METAR, TAF).

turimą stotys yra geltonos ir raudonos taškus žemėlapyje.

Perkelti pele per norėdami pamatyti stoties vardą.

Tada spustelėkite, norėdami matyti oro stebėjimo ir prognozės.

Norėdami pakeisti žemėlapį: spustelėkite ant žalios mygtukų su juodo kryžiaus žemyn,; žalią mygtuką su brūkšneliu, jei norite nutolinti; arba žalių rodyklių gretimoms žemėlapius.


METAR-TAF: